Aviation Digital Data Service (ADDS)

Output produced by TAFs form (0720 UTC 23 November 2014)
found at http://aviationweather.gov/adds/tafs/
 
KSAF 230540Z 2306/2406 VRB06KT P6SM SCT120 BKN180 
     FM230830 27011G18KT P6SM SCT090 BKN120 
     FM231600 29018G28KT P6SM FEW120 SCT200 
     TEMPO 2318/2322 32026G36KT